WetterOnline ( https://www.wetteronline.de )

Wetter aktuell Neuenstein

Aktuelles Wetter: Bad Hersfeld (273m)

6-stündlich | Neueste Meldungen
Ortszeit Temperatur Wetter
Fr, 24.09. 2:00 15.8° C bedeckt
Do, 23.09. 20:00 17.8° C bedeckt
Do, 23.09. 14:00 20.4° C leicht bewölkt
Do, 23.09. 8:00 6.2° C Nebel
Do, 23.09. 2:00 8.9° C wolkig
Mi, 22.09. 20:00 13.1° C wolkenlos
Mi, 22.09. 14:00 16.2° C bewölkt
Mi, 22.09. 8:00 5.7° C wolkig
Ortszeit Temperatur Wetter
Fr, 24.09. 5:00 13.4° C bedeckt
Fr, 24.09. 4:40 13.5° C bedeckt
Fr, 24.09. 4:30 13.7° C bedeckt
Fr, 24.09. 4:20 13.7° C Sprühregen
Fr, 24.09. 4:10 14.1° C Sprühregen
Fr, 24.09. 4:00 15.2° C Sprühregen
Fr, 24.09. 3:50 15.2° C Sprühregen
Fr, 24.09. 3:30 15.4° C bedeckt
Fr, 24.09. 3:00 15.6° C bedeckt
Fr, 24.09. 2:30 15.8° C bedeckt
Fr, 24.09. 2:00 15.8° C bedeckt
Ortszeit Relative Feuchte Sichtweite
Fr, 24.09. 2:00 74% 35 km
Do, 23.09. 20:00 58% 65 km
Do, 23.09. 14:00 46% 55 km
Do, 23.09. 8:00 99% 0.9 km
Do, 23.09. 2:00 100% 8 km
Mi, 22.09. 20:00 84% 40 km
Mi, 22.09. 14:00 64% 35 km
Mi, 22.09. 8:00 98% 12 km
Ortszeit Relative Feuchte Sichtweite
Fr, 24.09. 5:00 96% 15 km
Fr, 24.09. 4:40 96% -
Fr, 24.09. 4:30 94% 11 km
Fr, 24.09. 4:20 94% -
Fr, 24.09. 4:10 90% -
Fr, 24.09. 4:00 79% 28 km
Fr, 24.09. 3:50 79% -
Fr, 24.09. 3:30 77% 40 km
Fr, 24.09. 3:00 75% 45 km
Fr, 24.09. 2:30 74% 35 km
Fr, 24.09. 2:00 74% 35 km
Ortszeit Niederschlagsmenge Niederschlagsart
Fr, 24.09. 2:00 0.0 l/m2 in 6 Std. -
Do, 23.09. 20:00 0.0 l/m2 in 12 Std. -
Do, 23.09. 14:00 0.0 l/m2 in 6 Std. -
Do, 23.09. 8:00 0.0 l/m2 in 12 Std. -
Do, 23.09. 2:00 0.0 l/m2 in 6 Std. -
Mi, 22.09. 20:00 0.0 l/m2 in 12 Std. -
Mi, 22.09. 14:00 0.0 l/m2 in 6 Std. -
Mi, 22.09. 8:00 0.0 l/m2 in 12 Std. -
Ortszeit Niederschlagsmenge Niederschlagsart
Fr, 24.09. 5:00 0.4 l/m2 in 1 Std. Regen
Fr, 24.09. 4:40 keine Meldung -
Fr, 24.09. 4:30 0.4 l/m2 in 1 Std. Schneeregen
Fr, 24.09. 4:20 keine Meldung -
Fr, 24.09. 4:10 keine Meldung -
Fr, 24.09. 4:00 0.1 l/m2 in 1 Std. Sprühregen
Fr, 24.09. 3:50 keine Meldung -
Fr, 24.09. 3:30 0.0 l/m2 in 1 Std. -
Fr, 24.09. 3:00 0.0 l/m2 in 1 Std. -
Fr, 24.09. 2:30 0.0 l/m2 in 1 Std. -
Fr, 24.09. 2:00 0.0 l/m2 in 1 Std. -
Ortszeit Stärke Spitze Richtung
km/h Bft. km/h Grad Sektor
Fr, 24.09. 2:00 13 3 30 220° SW
Do, 23.09. 20:00 15 3 48 210° SW
Do, 23.09. 14:00 20 4 37 220° SW
Do, 23.09. 8:00 4 1 7 210° SW
Do, 23.09. 2:00 7 2 11 220° SW
Mi, 22.09. 20:00 6 1 19 180° S
Mi, 22.09. 14:00 11 2 22 360° N
Mi, 22.09. 8:00 0 0 7 - -
Ortszeit Stärke Spitze Richtung
km/h Bft. km/h Grad Sektor
Fr, 24.09. 5:00 7 2 24 180° S
Fr, 24.09. 4:40 6 1 - 180° S
Fr, 24.09. 4:30 4 1 25 180° S
Fr, 24.09. 4:20 4 1 - 180° S
Fr, 24.09. 4:10 6 1 - 300° NW
Fr, 24.09. 4:00 13 3 26 270° W
Fr, 24.09. 3:50 13 3 - 270° W
Fr, 24.09. 3:30 11 2 25 230° SW
Fr, 24.09. 3:00 15 3 28 220° SW
Fr, 24.09. 2:30 14 3 25 220° SW
Fr, 24.09. 2:00 13 3 22 220° SW
Ortszeit Untergrenze Bedeckung Gattung
total tief tief mittel hoch
Fr, 24.09. 2:00 810 m 8/8 8/8 - - -
Do, 23.09. 20:00 1440 m 8/8 8/8 - - -
Do, 23.09. 14:00 10500 m 8/8 0/8 - - -
Do, 23.09. 8:00 <30 m 7/8 0/8 - - -
Do, 23.09. 2:00 9000 m 7/8 0/8 - - -
Mi, 22.09. 20:00 - 0/8 0/8 - - -
Mi, 22.09. 14:00 750 m 7/8 6/8 - - -
Mi, 22.09. 8:00 30 m 8/8 3/8 - - -
Ortszeit Bedeckungsgrad in Achtel und Wolkenuntergrenze
Fr, 24.09. 5:00 4(570m) 7(750m) 8(1020m)
Fr, 24.09. 4:40 1(30m) 5(570m) 8(750m)
Fr, 24.09. 4:30 1(30m) 7(630m) 8(780m)
Fr, 24.09. 4:20 1(30m) 7(630m) 8(780m)
Fr, 24.09. 4:10 3(330m) 7(540m)
Fr, 24.09. 4:00 8(540m)
Fr, 24.09. 3:50 8(540m)
Fr, 24.09. 3:30 8(630m)
Fr, 24.09. 3:00 8(720m)
Fr, 24.09. 2:30 8(780m)
Fr, 24.09. 2:00 8(810m)
Ortszeit Luftdruck NN (hPa) Tendenz (hPa in 3 Std.)
Fr, 24.09. 2:00 1016 + 0,2
Do, 23.09. 20:00 1015 - 0,6
Do, 23.09. 14:00 1017 - 2,7
Do, 23.09. 8:00 1022 - 1,2
Do, 23.09. 2:00 1025 - 0,7
Mi, 22.09. 20:00 1026 - 0,7
Mi, 22.09. 14:00 1028 - 1,4
Mi, 22.09. 8:00 1031 + 0,2
Ortszeit Luftdruck NN (hPa) Tendenz (hPa in 3 Std.)
Fr, 24.09. 5:00 1017 + 0,3
Fr, 24.09. 4:40 1017 keine Meldung
Fr, 24.09. 4:30 1017 + 0,2
Fr, 24.09. 4:20 1017 keine Meldung
Fr, 24.09. 4:10 1017 keine Meldung
Fr, 24.09. 4:00 1016 + 0,1
Fr, 24.09. 3:50 1016 keine Meldung
Fr, 24.09. 3:30 1016 - 0,1
Fr, 24.09. 3:00 1016 - 0,3
Fr, 24.09. 2:30 1016 - 0,2
Fr, 24.09. 2:00 1016 + 0,2
Ortszeit Schneehöhe (cm)
Fr, 24.09. 2:00 -
Do, 23.09. 20:00 -
Do, 23.09. 14:00 -
Do, 23.09. 8:00 -
Do, 23.09. 2:00 -
Mi, 22.09. 20:00 -
Mi, 22.09. 14:00 -
Mi, 22.09. 8:00 -
Ortszeit Schneehöhe (cm)
Fr, 24.09. 5:00 -
Fr, 24.09. 4:40 -
Fr, 24.09. 4:30 -
Fr, 24.09. 4:20 -
Fr, 24.09. 4:10 -
Fr, 24.09. 4:00 -
Fr, 24.09. 3:50 -
Fr, 24.09. 3:30 -
Fr, 24.09. 3:00 -
Fr, 24.09. 2:30 -
Fr, 24.09. 2:00 -
Link zu dieser Seite / Seite empfehlen

Das Wetter in ...